createdAt,value
2023-01-06T00:00:09.807Z,7.1
2023-01-06T00:03:09.647Z,7.1
2023-01-06T00:06:09.721Z,7.1
2023-01-06T00:09:09.641Z,7.1
2023-01-06T00:12:09.670Z,7.1
2023-01-06T00:15:09.846Z,7.1
2023-01-06T00:18:09.637Z,7.1
2023-01-06T00:21:09.678Z,7.1
2023-01-06T00:24:09.679Z,7.1
2023-01-06T00:27:09.569Z,7.1
2023-01-06T00:30:09.737Z,7.1
2023-01-06T00:33:09.612Z,7.1
2023-01-06T00:36:09.685Z,7.1
2023-01-06T00:39:09.613Z,7
2023-01-06T00:42:09.608Z,7
2023-01-06T00:45:09.600Z,7.1
2023-01-06T00:48:09.693Z,7.1
2023-01-06T00:51:09.696Z,7.1
2023-01-06T00:54:09.601Z,7.1
2023-01-06T00:57:09.654Z,7.1
2023-01-06T01:00:09.673Z,7.1
2023-01-06T01:03:10.124Z,7.1
2023-01-06T01:06:09.602Z,7.1
2023-01-06T01:09:09.860Z,7.1
2023-01-06T01:12:09.601Z,7.1
2023-01-06T01:15:09.628Z,7.2
2023-01-06T01:18:09.627Z,7.2
2023-01-06T01:21:09.662Z,7.2
2023-01-06T01:24:09.624Z,7.2
2023-01-06T01:27:09.740Z,7.2
2023-01-06T01:30:09.658Z,7.2
2023-01-06T01:33:09.573Z,7.1
2023-01-06T01:36:09.619Z,7.1
2023-01-06T01:39:09.667Z,7.2
2023-01-06T01:42:09.667Z,7.2
2023-01-06T01:45:09.649Z,7.1
2023-01-06T01:48:09.675Z,7.1
2023-01-06T01:51:09.603Z,7.1
2023-01-06T01:54:09.689Z,7.1
2023-01-06T01:57:09.641Z,7.1
2023-01-06T02:00:09.649Z,7.1
2023-01-06T02:03:10.134Z,7.1
2023-01-06T02:06:09.697Z,7.1
2023-01-06T02:09:09.596Z,7.1
2023-01-06T02:12:09.714Z,7.1
2023-01-06T02:15:09.667Z,7.1
2023-01-06T02:18:09.676Z,7.1
2023-01-06T02:21:09.812Z,7.1
2023-01-06T02:24:09.555Z,7.1
2023-01-06T02:27:09.654Z,7.1
2023-01-06T02:30:09.719Z,7.1
2023-01-06T02:33:09.749Z,7.1
2023-01-06T02:36:09.761Z,7.1
2023-01-06T02:39:09.623Z,7.1
2023-01-06T02:42:09.597Z,7.1
2023-01-06T02:45:09.699Z,7.1
2023-01-06T02:48:09.641Z,7
2023-01-06T02:51:09.758Z,7
2023-01-06T02:54:09.670Z,7.1
2023-01-06T02:57:09.633Z,7
2023-01-06T03:00:09.778Z,7.1
2023-01-06T03:03:09.644Z,7.1
2023-01-06T03:06:09.645Z,7.4
2023-01-06T03:09:09.647Z,7.6
2023-01-06T03:12:09.664Z,7.7
2023-01-06T03:15:09.912Z,7.9
2023-01-06T03:18:09.857Z,7.9
2023-01-06T03:21:09.677Z,7.9
2023-01-06T03:24:09.756Z,8.1
2023-01-06T03:27:09.623Z,8.1
2023-01-06T03:30:09.794Z,8.3
2023-01-06T03:33:12.039Z,8.3
2023-01-06T03:36:09.613Z,8.3
2023-01-06T03:39:09.711Z,8.4
2023-01-06T03:42:09.648Z,8.4
2023-01-06T03:45:09.647Z,8.4
2023-01-06T03:48:09.621Z,8.4
2023-01-06T03:51:09.629Z,8.4
2023-01-06T03:54:09.591Z,8.4
2023-01-06T03:57:09.640Z,8.4
2023-01-06T04:00:09.765Z,8.4
2023-01-06T04:03:09.668Z,8.4
2023-01-06T04:06:09.673Z,8.4
2023-01-06T04:09:09.689Z,8.4
2023-01-06T04:12:09.656Z,8.5
2023-01-06T04:15:09.734Z,8.5
2023-01-06T04:18:09.706Z,8.6
2023-01-06T04:21:09.671Z,8.6
2023-01-06T04:24:09.663Z,8.6
2023-01-06T04:27:09.686Z,8.6
2023-01-06T04:30:09.707Z,8.6
2023-01-06T04:33:09.699Z,8.6
2023-01-06T04:36:09.676Z,8.6
2023-01-06T04:39:09.704Z,8.6
2023-01-06T04:42:09.711Z,8.6
2023-01-06T04:45:09.645Z,8.6
2023-01-06T04:48:09.715Z,8.6
2023-01-06T04:51:09.656Z,8.6
2023-01-06T04:54:09.695Z,8.6
2023-01-06T04:57:09.592Z,8.6
2023-01-06T05:00:09.724Z,8.6
2023-01-06T05:03:09.667Z,8.6
2023-01-06T05:06:09.678Z,8.6
2023-01-06T05:09:09.674Z,8.8
2023-01-06T05:12:09.639Z,8.8
2023-01-06T05:15:09.766Z,8.8
2023-01-06T05:18:09.741Z,8.8
2023-01-06T05:21:09.673Z,8.8
2023-01-06T05:24:10.015Z,8.8
2023-01-06T05:27:09.653Z,8.8
2023-01-06T05:30:09.632Z,8.9
2023-01-06T05:33:09.674Z,8.9
2023-01-06T05:36:09.629Z,8.9
2023-01-06T05:39:09.840Z,8.9
2023-01-06T05:42:09.724Z,8.9
2023-01-06T05:45:09.763Z,8.9
2023-01-06T05:48:09.678Z,8.9
2023-01-06T05:51:09.667Z,9
2023-01-06T05:54:09.662Z,8.9
2023-01-06T05:57:09.724Z,8.9
2023-01-06T06:00:09.699Z,8.9
2023-01-06T06:03:09.730Z,8.9
2023-01-06T06:06:09.654Z,9
2023-01-06T06:09:09.707Z,9.1
2023-01-06T06:12:09.718Z,9.1
2023-01-06T06:15:09.624Z,9.1
2023-01-06T06:18:09.629Z,9.1
2023-01-06T06:21:09.661Z,9.1
2023-01-06T06:24:09.737Z,9.1
2023-01-06T06:27:09.756Z,9.1
2023-01-06T06:30:09.743Z,9.2
2023-01-06T06:33:09.638Z,9.2
2023-01-06T06:36:09.716Z,9.2
2023-01-06T06:39:09.730Z,9.2
2023-01-06T06:42:09.708Z,9.3
2023-01-06T06:45:09.679Z,9.3
2023-01-06T06:48:09.727Z,9.3
2023-01-06T06:51:09.748Z,9.3
2023-01-06T06:54:09.755Z,9.3
2023-01-06T06:57:09.662Z,9.3
2023-01-06T07:00:09.800Z,9.3
2023-01-06T07:03:09.614Z,9.3
2023-01-06T07:06:09.603Z,9.3
2023-01-06T07:09:09.643Z,9.3
2023-01-06T07:12:09.662Z,9.3
2023-01-06T07:15:09.709Z,9.3
2023-01-06T07:18:09.668Z,9.2
2023-01-06T07:21:09.635Z,9.2
2023-01-06T07:24:09.619Z,9.3
2023-01-06T07:27:09.678Z,9.3
2023-01-06T07:30:09.740Z,9.3
2023-01-06T07:33:09.730Z,9.3
2023-01-06T07:36:09.765Z,9.3
2023-01-06T07:39:09.731Z,9.3
2023-01-06T07:42:09.746Z,9.4
2023-01-06T07:45:09.671Z,9.4
2023-01-06T07:48:09.800Z,9.4
2023-01-06T07:51:10.521Z,9.4
2023-01-06T07:54:09.691Z,9.4
2023-01-06T07:57:09.812Z,9.4
2023-01-06T08:00:09.758Z,9.4
2023-01-06T08:03:10.021Z,9.4
2023-01-06T08:06:09.621Z,9.5
2023-01-06T08:09:09.793Z,9.6
2023-01-06T08:12:09.701Z,9.6
2023-01-06T08:15:09.856Z,9.6
2023-01-06T08:18:09.641Z,9.6
2023-01-06T08:21:09.745Z,9.6
2023-01-06T08:24:09.739Z,9.6
2023-01-06T08:27:09.679Z,9.6
2023-01-06T08:30:09.830Z,9.6
2023-01-06T08:33:09.674Z,9.6
2023-01-06T08:36:09.801Z,9.6
2023-01-06T08:39:09.769Z,9.6
2023-01-06T08:42:09.727Z,9.8
2023-01-06T08:45:09.773Z,9.8
2023-01-06T08:48:09.661Z,9.8
2023-01-06T08:51:09.696Z,9.8
2023-01-06T08:54:09.706Z,9.8
2023-01-06T08:57:09.803Z,9.8
2023-01-06T09:00:09.740Z,9.9
2023-01-06T09:03:09.710Z,9.9
2023-01-06T09:06:09.755Z,9.9
2023-01-06T09:09:09.709Z,9.9
2023-01-06T09:12:11.977Z,9.9
2023-01-06T09:15:09.795Z,10
2023-01-06T09:18:09.731Z,10
2023-01-06T09:21:09.693Z,10
2023-01-06T09:24:09.818Z,10
2023-01-06T09:27:09.821Z,10.2
2023-01-06T09:30:09.767Z,10.3
2023-01-06T09:33:09.629Z,10.4
2023-01-06T09:36:09.730Z,10.5
2023-01-06T09:39:09.739Z,10.5
2023-01-06T09:42:09.850Z,10.5
2023-01-06T09:45:09.735Z,10.5
2023-01-06T09:48:09.669Z,10.4
2023-01-06T09:51:09.679Z,10.6
2023-01-06T09:54:09.687Z,10.8
2023-01-06T09:57:09.700Z,10.8
2023-01-06T10:00:09.787Z,10.9
2023-01-06T10:03:09.781Z,10.9
2023-01-06T10:06:10.098Z,10.9
2023-01-06T10:09:09.744Z,10.8
2023-01-06T10:12:09.759Z,10.8
2023-01-06T10:15:09.834Z,10.7
2023-01-06T10:18:10.075Z,10.6
2023-01-06T10:21:09.783Z,10.4
2023-01-06T10:24:09.775Z,10.3
2023-01-06T10:27:11.120Z,10.1
2023-01-06T10:30:09.765Z,10.1
2023-01-06T10:33:09.741Z,10.1
2023-01-06T10:36:09.708Z,10.2
2023-01-06T10:39:09.719Z,10.6
2023-01-06T10:42:09.827Z,10.9
2023-01-06T10:45:09.652Z,10.8
2023-01-06T10:48:09.709Z,10.6
2023-01-06T10:51:09.735Z,10.5
2023-01-06T10:54:09.708Z,10.6
2023-01-06T10:57:09.743Z,10.6
2023-01-06T11:00:09.826Z,10.6
2023-01-06T11:03:42.267Z,10.5
2023-01-06T11:06:09.718Z,10.6
2023-01-06T11:09:09.832Z,10.5
2023-01-06T11:12:09.746Z,10.4
2023-01-06T11:15:09.701Z,10.4
2023-01-06T11:18:09.797Z,10.4
2023-01-06T11:21:09.756Z,10.6
2023-01-06T11:24:09.750Z,10.6
2023-01-06T11:27:09.574Z,10.6
2023-01-06T11:30:09.699Z,10.4
2023-01-06T11:33:09.695Z,10.5
2023-01-06T11:36:09.749Z,10.4
2023-01-06T11:39:09.685Z,10.4
2023-01-06T11:42:09.676Z,10.3
2023-01-06T11:45:09.767Z,10
2023-01-06T11:48:09.720Z,9.9
2023-01-06T11:51:09.715Z,9.8
2023-01-06T11:54:09.692Z,9.8
2023-01-06T11:57:09.675Z,9.8
2023-01-06T12:00:09.820Z,9.7
2023-01-06T12:03:10.250Z,9.6
2023-01-06T12:06:09.681Z,9.5
2023-01-06T12:09:09.683Z,9.4
2023-01-06T12:12:09.723Z,9.3
2023-01-06T12:15:12.408Z,9.3
2023-01-06T12:18:09.786Z,9.3
2023-01-06T12:21:09.688Z,9.3
2023-01-06T12:24:09.663Z,9.3
2023-01-06T12:27:09.641Z,9.3
2023-01-06T12:30:09.723Z,9.3
2023-01-06T12:33:09.702Z,9.3
2023-01-06T12:36:09.729Z,9.3
2023-01-06T12:39:09.732Z,9.3
2023-01-06T12:42:09.701Z,9.3
2023-01-06T12:45:09.766Z,9.4
2023-01-06T12:48:09.639Z,9.6
2023-01-06T12:51:09.656Z,9.7
2023-01-06T12:54:09.804Z,9.7
2023-01-06T12:57:09.775Z,9.7
2023-01-06T13:00:09.764Z,9.7
2023-01-06T13:03:09.715Z,9.7
2023-01-06T13:06:09.709Z,9.7
2023-01-06T13:09:12.084Z,9.7
2023-01-06T13:12:09.795Z,9.8
2023-01-06T13:15:09.700Z,9.9
2023-01-06T13:18:12.052Z,9.9
2023-01-06T13:21:09.696Z,9.9
2023-01-06T13:24:09.712Z,10
2023-01-06T13:27:09.740Z,10.1
2023-01-06T13:30:09.713Z,10.1
2023-01-06T13:33:11.776Z,10
2023-01-06T13:36:09.656Z,9.9
2023-01-06T13:39:09.752Z,9.8
2023-01-06T13:42:09.769Z,9.7
2023-01-06T13:45:09.832Z,9.6
2023-01-06T13:48:09.747Z,9.6
2023-01-06T13:51:09.661Z,9.7
2023-01-06T13:54:09.704Z,9.8
2023-01-06T13:57:09.663Z,9.9
2023-01-06T14:00:09.946Z,9.9
2023-01-06T14:03:10.274Z,9.9
2023-01-06T14:06:09.816Z,10
2023-01-06T14:09:09.726Z,9.9
2023-01-06T14:12:11.221Z,9.9
2023-01-06T14:15:09.790Z,9.9
2023-01-06T14:18:09.665Z,9.8
2023-01-06T14:21:09.729Z,9.8
2023-01-06T14:24:09.780Z,9.8
2023-01-06T14:27:09.801Z,9.7
2023-01-06T14:30:09.911Z,9.7
2023-01-06T14:33:09.696Z,9.8
2023-01-06T14:36:09.694Z,9.9
2023-01-06T14:39:09.723Z,9.9
2023-01-06T14:42:09.815Z,9.9
2023-01-06T14:45:09.689Z,9.8
2023-01-06T14:48:09.612Z,9.8
2023-01-06T14:51:09.676Z,9.7
2023-01-06T14:54:09.757Z,9.6
2023-01-06T14:57:09.927Z,9.4
2023-01-06T15:00:09.812Z,9.2
2023-01-06T15:03:10.034Z,9.1
2023-01-06T15:06:09.639Z,8.9
2023-01-06T15:09:09.657Z,8.8
2023-01-06T15:12:09.713Z,8.8
2023-01-06T15:15:09.693Z,8.7
2023-01-06T15:18:09.700Z,8.7
2023-01-06T15:21:10.029Z,8.6
2023-01-06T15:24:09.691Z,8.6
2023-01-06T15:27:09.626Z,8.5
2023-01-06T15:30:09.711Z,8.4
2023-01-06T15:33:09.661Z,8.2
2023-01-06T15:36:09.618Z,8.1
2023-01-06T15:39:09.696Z,8.1
2023-01-06T15:42:12.101Z,8
2023-01-06T15:45:12.080Z,7.9
2023-01-06T15:48:09.671Z,7.9
2023-01-06T15:51:09.670Z,7.7
2023-01-06T15:54:09.708Z,7.6
2023-01-06T15:57:25.903Z,7.4
2023-01-06T16:00:09.630Z,7.3
2023-01-06T16:03:09.767Z,7.2
2023-01-06T16:06:21.025Z,7.1
2023-01-06T16:09:09.631Z,7.1
2023-01-06T16:12:09.689Z,7
2023-01-06T16:15:09.685Z,7.1
2023-01-06T16:18:09.609Z,7.1
2023-01-06T16:21:09.647Z,7
2023-01-06T16:24:09.706Z,7.1
2023-01-06T16:27:09.690Z,7
2023-01-06T16:30:09.747Z,6.9
2023-01-06T16:33:09.624Z,6.9
2023-01-06T16:36:09.649Z,6.9
2023-01-06T16:39:09.658Z,6.9
2023-01-06T16:42:09.710Z,6.9
2023-01-06T16:45:09.667Z,7
2023-01-06T16:48:09.676Z,7
2023-01-06T16:51:09.678Z,6.9
2023-01-06T16:54:09.657Z,6.9
2023-01-06T16:57:09.710Z,6.8
2023-01-06T17:00:09.901Z,6.9
2023-01-06T17:03:09.590Z,7
2023-01-06T17:06:09.671Z,7.1
2023-01-06T17:09:09.646Z,7.1
2023-01-06T17:12:09.650Z,7.1
2023-01-06T17:15:09.615Z,7
2023-01-06T17:18:09.644Z,7
2023-01-06T17:21:09.826Z,7
2023-01-06T17:24:09.699Z,6.9
2023-01-06T17:27:09.701Z,7.1
2023-01-06T17:30:09.691Z,7
2023-01-06T17:33:09.664Z,7.1
2023-01-06T17:36:09.664Z,7.1
2023-01-06T17:39:09.669Z,7.2
2023-01-06T17:42:10.856Z,7.3
2023-01-06T17:45:09.687Z,7.3
2023-01-06T17:48:09.599Z,7.3
2023-01-06T17:51:09.674Z,7.4
2023-01-06T17:54:09.632Z,7.3
2023-01-06T17:57:09.683Z,7.3
2023-01-06T18:00:09.749Z,7.2
2023-01-06T18:03:09.762Z,7.2
2023-01-06T18:06:09.664Z,7.2
2023-01-06T18:09:09.747Z,7.2
2023-01-06T18:12:09.698Z,7.2
2023-01-06T18:15:09.728Z,7.1
2023-01-06T18:18:09.621Z,7.1
2023-01-06T18:21:09.664Z,7.1
2023-01-06T18:24:09.648Z,7.1
2023-01-06T18:27:09.699Z,7.1
2023-01-06T18:30:09.740Z,6.9
2023-01-06T18:33:09.628Z,6.8
2023-01-06T18:36:09.627Z,6.8
2023-01-06T18:39:09.692Z,6.9
2023-01-06T18:42:12.351Z,6.9
2023-01-06T18:45:09.735Z,6.8
2023-01-06T18:48:09.683Z,6.9
2023-01-06T18:51:09.664Z,6.9
2023-01-06T18:54:09.619Z,6.9
2023-01-06T18:57:09.688Z,6.8
2023-01-06T19:00:09.763Z,6.7
2023-01-06T19:03:09.614Z,6.8
2023-01-06T19:06:11.681Z,6.7
2023-01-06T19:09:09.639Z,6.7
2023-01-06T19:12:09.821Z,6.7
2023-01-06T19:15:09.633Z,6.7
2023-01-06T19:18:09.671Z,6.8
2023-01-06T19:21:09.611Z,7
2023-01-06T19:24:09.619Z,7.1
2023-01-06T19:27:09.722Z,7.3
2023-01-06T19:30:09.685Z,7.5
2023-01-06T19:33:09.672Z,7.6
2023-01-06T19:36:09.662Z,7.5
2023-01-06T19:39:09.692Z,7.4
2023-01-06T19:42:09.660Z,7.4
2023-01-06T19:45:09.794Z,7.3
2023-01-06T19:48:09.673Z,7.2
2023-01-06T19:51:09.695Z,7.2
2023-01-06T19:54:09.747Z,7.2
2023-01-06T19:57:09.987Z,7.3
2023-01-06T20:00:09.738Z,7.3
2023-01-06T20:03:10.604Z,7.4
2023-01-06T20:06:09.696Z,7.5
2023-01-06T20:09:09.742Z,7.5
2023-01-06T20:12:09.627Z,7.4
2023-01-06T20:15:12.386Z,7.3
2023-01-06T20:18:09.694Z,7.2
2023-01-06T20:21:09.670Z,7.1
2023-01-06T20:24:09.693Z,7.1
2023-01-06T20:27:09.620Z,7.1
2023-01-06T20:30:09.694Z,7.1
2023-01-06T20:33:09.613Z,7.2
2023-01-06T20:36:12.282Z,7.2
2023-01-06T20:39:09.651Z,7.4
2023-01-06T20:42:11.403Z,7.4
2023-01-06T20:45:09.703Z,7.4
2023-01-06T20:48:09.677Z,7.6
2023-01-06T20:51:09.664Z,7.6
2023-01-06T20:54:09.690Z,7.7
2023-01-06T20:57:09.706Z,7.7
2023-01-06T21:00:09.669Z,7.7
2023-01-06T21:03:10.164Z,7.7
2023-01-06T21:06:09.709Z,7.8
2023-01-06T21:09:09.700Z,7.7
2023-01-06T21:12:09.626Z,7.7
2023-01-06T21:15:09.834Z,7.6
2023-01-06T21:18:09.692Z,7.7
2023-01-06T21:21:09.657Z,7.6
2023-01-06T21:24:09.643Z,7.5
2023-01-06T21:27:09.735Z,7.5
2023-01-06T21:30:09.663Z,7.4
2023-01-06T21:33:09.678Z,7.3
2023-01-06T21:36:09.642Z,7.2
2023-01-06T21:39:09.723Z,7.4
2023-01-06T21:42:09.649Z,7.4
2023-01-06T21:45:10.663Z,7.4
2023-01-06T21:48:09.687Z,7.4
2023-01-06T21:51:09.922Z,7.5
2023-01-06T21:54:09.713Z,7.6
2023-01-06T21:57:09.651Z,7.6
2023-01-06T22:00:09.659Z,7.7
2023-01-06T22:03:10.375Z,7.8
2023-01-06T22:06:09.695Z,7.8
2023-01-06T22:09:09.601Z,7.7
2023-01-06T22:12:09.700Z,7.6
2023-01-06T22:15:09.665Z,7.6
2023-01-06T22:18:09.715Z,7.5
2023-01-06T22:21:09.676Z,7.5
2023-01-06T22:24:09.665Z,7.6
2023-01-06T22:27:09.690Z,7.6
2023-01-06T22:30:09.744Z,7.6
2023-01-06T22:33:09.726Z,7.6
2023-01-06T22:36:09.671Z,7.6
2023-01-06T22:39:09.673Z,7.6
2023-01-06T22:42:09.629Z,7.6
2023-01-06T22:45:09.731Z,7.6
2023-01-06T22:48:09.676Z,7.6
2023-01-06T22:51:09.665Z,7.6
2023-01-06T22:54:09.728Z,7.4
2023-01-06T22:57:09.639Z,7.5
2023-01-06T23:00:10.458Z,7.6
2023-01-06T23:03:10.069Z,7.4
2023-01-06T23:06:09.877Z,7.4
2023-01-06T23:09:10.267Z,7.3
2023-01-06T23:12:09.660Z,7.2
2023-01-06T23:15:09.650Z,7.1
2023-01-06T23:18:09.698Z,7.1
2023-01-06T23:21:09.708Z,7.1
2023-01-06T23:24:09.751Z,7.2
2023-01-06T23:27:09.953Z,7.2
2023-01-06T23:30:09.672Z,7.1
2023-01-06T23:33:09.665Z,7.2
2023-01-06T23:36:09.681Z,7.2
2023-01-06T23:39:09.637Z,7.2
2023-01-06T23:42:09.687Z,7.2
2023-01-06T23:45:09.681Z,7.1
2023-01-06T23:48:09.670Z,7
2023-01-06T23:51:09.619Z,6.9
2023-01-06T23:54:09.617Z,6.8
2023-01-06T23:57:09.677Z,6.7
